Lockwood, North Dakota
Current Conditions -  °F | °C
As of 7:58 PM on Saturday 22 Nov 2014 (Local Time) from KMIB Reporting Station
Clear Clear  
Wind Chill: 33°   Ceiling: Unl
Heat Index: 40°   Visibility: 10mi
Dew Point: 33°   Wind: 12mph
Humidity: 75%   Direction: 250°WSW
Pressure: 29.24"   Gusts: NA
Location:  48.6236°N, 101.367°W
Report Text: KMIB 230158Z AUTO 25010KT 10SM CLR 05/01 A2924 RMK AO2 SLP923 T00460006
Loading
Personal Weather Stations






























Interactive Weather Map New forecast layout! Learn more

10-Day Weather Forecast

Advertisements
Track Severe Weather on mobile